Time;durP1;ratioP1;P1;durP2;ratioP2;P2;SDS_P1;SDS_P2;PMS_P1;PMS_P2;Temp;Humidity;BMP_temperature;BMP_pressure;BME280_temperature;BME280_humidity;BME280_pressure;Samples;Min_cycle;Max_cycle;Signal;HPM_P1;HPM_P2
2022/01/17 00:00:02;;;;;;;22.42;3.90;;;;;;;;;;5142909;28;20459;-63
2022/01/17 00:02:28;;;;;;;22.35;3.10;;;;;;;;;;5143606;28;20035;-62
2022/01/17 00:04:54;;;;;;;15.68;2.45;;;;;;;;;;5144811;27;20113;-62
2022/01/17 00:07:20;;;;;;;18.73;3.22;;;;;;;;;;5144626;28;20046;-62
2022/01/17 00:09:47;;;;;;;24.92;3.95;;;;;;;;;;5141906;28;20043;-62
2022/01/17 00:12:13;;;;;;;23.27;3.30;;;;;;;;;;5144213;28;20042;-63
2022/01/17 00:14:41;;;;;;;20.02;3.55;;;;;;;;;;5145389;27;20211;-63
2022/01/17 00:19:42;;;;;;;19.98;3.20;;;;;;;;;;5144641;27;20050;-62
2022/01/17 00:22:09;;;;;;;17.23;3.22;;;;;;;;;;5144743;27;20066;-62
2022/01/17 00:24:35;;;;;;;29.25;3.63;;;;;;;;;;5145034;28;20545;-62
2022/01/17 00:27:02;;;;;;;25.90;2.85;;;;;;;;;;5144810;28;20075;-62
2022/01/17 00:29:28;;;;;;;16.42;2.90;;;;;;;;;;5145280;28;20095;-62
2022/01/17 00:31:54;;;;;;;16.50;3.05;;;;;;;;;;5144722;28;20511;-62
2022/01/17 00:34:20;;;;;;;13.55;3.83;;;;;;;;;;5145351;28;20063;-63
2022/01/17 00:36:46;;;;;;;23.23;2.75;;;;;;;;;;5144959;28;20422;-62
2022/01/17 00:39:13;;;;;;;19.45;4.00;;;;;;;;;;5144881;28;20100;-62
2022/01/17 00:41:39;;;;;;;27.00;3.70;;;;;;;;;;5143108;28;20039;-62
2022/01/17 00:44:05;;;;;;;23.38;3.15;;;;;;;;;;5145269;28;20046;-62
2022/01/17 00:46:31;;;;;;;13.18;3.83;;;;;;;;;;5144591;28;20146;-62
2022/01/17 00:48:58;;;;;;;19.08;3.60;;;;;;;;;;5145428;28;20043;-62
2022/01/17 00:51:24;;;;;;;23.85;3.80;;;;;;;;;;5143797;28;20080;-63
2022/01/17 00:53:50;;;;;;;20.58;3.30;;;;;;;;;;5143446;28;20047;-62
2022/01/17 00:56:16;;;;;;;20.83;3.60;;;;;;;;;;5146183;27;20053;-62
2022/01/17 00:58:42;;;;;;;20.05;3.47;;;;;;;;;;5148694;27;20035;-63
2022/01/17 01:01:08;;;;;;;29.48;3.97;;;;;;;;;;5146853;27;20103;-63
2022/01/17 01:03:35;;;;;;;17.60;2.55;;;;;;;;;;5149036;27;20047;-62
2022/01/17 01:06:01;;;;;;;19.17;3.00;;;;;;;;;;5147953;27;20053;-62
2022/01/17 01:08:27;;;;;;;22.02;3.90;;;;;;;;;;5140902;27;20050;-62
2022/01/17 01:10:53;;;;;;;20.90;3.90;;;;;;;;;;5127837;28;20044;-62
2022/01/17 01:13:22;;;;;;;19.95;3.55;;;;;;;;;;5147931;27;20566;-62
2022/01/17 01:29:09;;;;;;;17.60;2.95;;;;;;;;;;5127652;28;20054;-62
2022/01/17 01:31:44;;;;;;;16.35;3.28;;;;;;;;;;5143067;27;20043;-62
2022/01/17 01:34:12;;;;;;;19.13;3.25;;;;;;;;;;5148396;27;20049;-62
2022/01/17 01:36:38;;;;;;;12.23;2.25;;;;;;;;;;5147663;27;20035;-62
2022/01/17 01:39:06;;;;;;;19.83;3.25;;;;;;;;;;5148262;27;20050;-62
2022/01/17 01:41:39;;;;;;;10.35;2.40;;;;;;;;;;5147563;27;20057;-62
2022/01/17 01:44:10;;;;;;;18.45;3.28;;;;;;;;;;5148065;27;20045;-63
2022/01/17 01:46:36;;;;;;;13.25;2.78;;;;;;;;;;5147669;27;20130;-61
2022/01/17 01:49:02;;;;;;;20.33;3.03;;;;;;;;;;5147862;27;20054;-61
2022/01/17 01:51:29;;;;;;;15.80;2.85;;;;;;;;;;5146913;27;20114;-61
2022/01/17 01:53:55;;;;;;;24.95;3.25;;;;;;;;;;5147777;27;20035;-61
2022/01/17 01:56:21;;;;;;;21.88;2.90;;;;;;;;;;5146300;27;20039;-61
2022/01/17 01:58:47;;;;;;;22.95;3.33;;;;;;;;;;5147869;27;20054;-63
2022/01/17 02:01:13;;;;;;;18.52;2.50;;;;;;;;;;5146916;27;20050;-62
2022/01/17 02:03:39;;;;;;;16.80;3.03;;;;;;;;;;5147408;27;20088;-63
2022/01/17 02:06:06;;;;;;;17.10;3.30;;;;;;;;;;5147085;27;20055;-63
2022/01/17 02:08:32;;;;;;;21.33;2.65;;;;;;;;;;5146754;27;20072;-62
2022/01/17 02:10:58;;;;;;;20.60;3.40;;;;;;;;;;5147379;27;20043;-62
2022/01/17 02:13:26;;;;;;;21.33;4.25;;;;;;;;;;5146870;27;20099;-62
2022/01/17 02:15:52;;;;;;;31.85;4.95;;;;;;;;;;5147232;27;20074;-62
2022/01/17 02:18:22;;;;;;;21.25;3.65;;;;;;;;;;5147462;27;20084;-62
2022/01/17 02:21:10;;;;;;;19.33;3.17;;;;;;;;;;5145062;27;20047;-63
2022/01/17 02:23:34;;;;;;;16.35;3.67;;;;;;;;;;5146965;27;20047;-62
2022/01/17 02:26:01;;;;;;;20.02;2.72;;;;;;;;;;5146942;27;20043;-62
2022/01/17 02:28:27;;;;;;;15.23;2.70;;;;;;;;;;5147195;27;20418;-62
2022/01/17 02:30:53;;;;;;;18.25;3.25;;;;;;;;;;5147068;27;20042;-62
2022/01/17 02:33:20;;;;;;;28.35;3.45;;;;;;;;;;5145283;27;20050;-62
2022/01/17 02:35:49;;;;;;;21.23;3.13;;;;;;;;;;5146430;27;20177;-62
2022/01/17 02:38:15;;;;;;;16.50;3.42;;;;;;;;;;5145742;27;20046;-62
2022/01/17 02:40:42;;;;;;;23.13;3.47;;;;;;;;;;5146512;27;20126;-62
2022/01/17 02:43:08;;;;;;;23.15;3.53;;;;;;;;;;5146637;27;20059;-62
2022/01/17 02:46:24;;;;;;;17.77;3.40;;;;;;;;;;5146500;27;20126;-62
2022/01/17 02:48:26;;;;;;;16.23;2.88;;;;;;;;;;5146615;27;20073;-62
2022/01/17 02:50:52;;;;;;;30.05;5.13;;;;;;;;;;5145845;27;20039;-62
2022/01/17 02:53:18;;;;;;;12.43;3.50;;;;;;;;;;5146567;27;20066;-62
2022/01/17 02:55:46;;;;;;;23.38;3.60;;;;;;;;;;5146464;27;20039;-62
2022/01/17 02:58:12;;;;;;;;;;;;;;;;;;5145996;27;20055;-62
2022/01/17 03:00:38;;;;;;;15.90;2.60;;;;;;;;;;5145872;27;19945;-62
2022/01/17 03:03:04;;;;;;;26.40;3.08;;;;;;;;;;5146302;27;20051;-62
2022/01/17 03:05:30;;;;;;;21.23;2.72;;;;;;;;;;5145587;27;20066;-62
2022/01/17 03:07:56;;;;;;;24.38;3.83;;;;;;;;;;5146533;27;20099;-62
2022/01/17 03:10:39;;;;;;;17.35;2.63;;;;;;;;;;5145732;27;20520;-62
2022/01/17 03:13:10;;;;;;;14.68;2.63;;;;;;;;;;5146311;27;20115;-62
2022/01/17 03:15:37;;;;;;;25.48;3.63;;;;;;;;;;5146022;27;20114;-61
2022/01/17 03:18:03;;;;;;;18.33;3.13;;;;;;;;;;5146299;27;20043;-62
2022/01/17 03:20:30;;;;;;;16.35;2.85;;;;;;;;;;5145142;27;20043;-62
2022/01/17 03:22:56;;;;;;;18.50;3.10;;;;;;;;;;5146250;27;20099;-62
2022/01/17 03:25:23;;;;;;;22.52;3.03;;;;;;;;;;5144778;27;20043;-62
2022/01/17 03:27:49;;;;;;;22.92;3.88;;;;;;;;;;5145982;27;20069;-62
2022/01/17 03:30:15;;;;;;;12.63;2.65;;;;;;;;;;5145677;27;20043;-62
2022/01/17 03:32:41;;;;;;;16.75;3.28;;;;;;;;;;5145577;27;20292;-62
2022/01/17 03:35:08;;;;;;;22.58;3.58;;;;;;;;;;5145189;27;20039;-62
2022/01/17 03:37:34;;;;;;;18.23;3.13;;;;;;;;;;5146123;27;20046;-62
2022/01/17 03:40:00;;;;;;;16.15;3.00;;;;;;;;;;5145382;27;20035;-62
2022/01/17 03:42:26;;;;;;;14.95;3.55;;;;;;;;;;5145502;27;20043;-62
2022/01/17 03:44:52;;;;;;;23.13;3.90;;;;;;;;;;5145593;27;20081;-62
2022/01/17 03:47:18;;;;;;;34.47;4.50;;;;;;;;;;5145372;27;20433;-62
2022/01/17 03:49:45;;;;;;;25.83;2.75;;;;;;;;;;5145608;27;20051;-62
2022/01/17 03:52:11;;;;;;;18.35;3.05;;;;;;;;;;5144882;27;20107;-62
2022/01/17 03:54:37;;;;;;;19.08;2.90;;;;;;;;;;5145334;27;20041;-62
2022/01/17 03:57:03;;;;;;;13.45;2.85;;;;;;;;;;5145118;27;20042;-62
2022/01/17 03:59:29;;;;;;;22.67;3.97;;;;;;;;;;5145297;27;20043;-62
2022/01/17 04:01:55;;;;;;;11.65;2.50;;;;;;;;;;5145485;27;20061;-62
2022/01/17 04:04:22;;;;;;;17.85;3.10;;;;;;;;;;5145676;28;20122;-62
2022/01/17 04:06:48;;;;;;;17.83;3.67;;;;;;;;;;5144908;28;20196;-62
2022/01/17 04:09:14;;;;;;;32.20;4.63;;;;;;;;;;5145236;28;20106;-62
2022/01/17 04:11:40;;;;;;;11.95;2.85;;;;;;;;;;5145260;28;20051;-62
2022/01/17 04:14:07;;;;;;;15.15;2.72;;;;;;;;;;5145079;28;20096;-62
2022/01/17 04:16:33;;;;;;;23.08;2.97;;;;;;;;;;5145002;28;20043;-62
2022/01/17 04:18:59;;;;;;;16.48;3.13;;;;;;;;;;5145428;28;20046;-62
2022/01/17 04:21:31;;;;;;;18.00;3.22;;;;;;;;;;5144563;28;20043;-62
2022/01/17 04:23:57;;;;;;;19.02;3.33;;;;;;;;;;5145018;27;20122;-62
2022/01/17 04:26:23;;;;;;;24.00;3.03;;;;;;;;;;5144848;28;20100;-62
2022/01/17 04:28:50;;;;;;;12.98;2.28;;;;;;;;;;5145165;28;20099;-62
2022/01/17 04:31:16;;;;;;;23.25;3.72;;;;;;;;;;5146615;27;20047;-62
2022/01/17 04:33:42;;;;;;;17.92;4.65;;;;;;;;;;5148199;27;20072;-61
2022/01/17 04:36:09;;;;;;;11.35;3.40;;;;;;;;;;5148351;27;20148;-62
2022/01/17 04:38:35;;;;;;;14.98;3.72;;;;;;;;;;5147813;27;20152;-62
2022/01/17 04:41:04;;;;;;;30.42;4.10;;;;;;;;;;5149044;27;20497;-62
2022/01/17 04:46:03;;;;;;;10.40;2.83;;;;;;;;;;5148344;27;20055;-62
2022/01/17 04:48:30;;;;;;;28.73;2.72;;;;;;;;;;5149372;27;20051;-62
2022/01/17 04:50:56;;;;;;;15.52;2.72;;;;;;;;;;5148144;27;20046;-61
2022/01/17 04:53:22;;;;;;;20.85;3.72;;;;;;;;;;5148675;27;20039;-62
2022/01/17 04:55:49;;;;;;;17.00;3.70;;;;;;;;;;5148357;27;20051;-61
2022/01/17 04:58:16;;;;;;;18.00;3.60;;;;;;;;;;5148922;27;20152;-62
2022/01/17 05:00:46;;;;;;;22.65;3.40;;;;;;;;;;5148757;27;20051;-62
2022/01/17 05:03:16;;;;;;;14.40;3.38;;;;;;;;;;5149182;27;20050;-62
2022/01/17 05:05:42;;;;;;;18.92;2.72;;;;;;;;;;5147920;27;20046;-62
2022/01/17 05:08:08;;;;;;;18.70;3.53;;;;;;;;;;5148676;27;20094;-62
2022/01/17 05:10:35;;;;;;;22.13;3.33;;;;;;;;;;5147054;27;20051;-62
2022/01/17 05:13:01;;;;;;;25.88;4.25;;;;;;;;;;5148843;27;20050;-62
2022/01/17 05:15:35;;;;;;;21.73;4.35;;;;;;;;;;5148108;27;20043;-62
2022/01/17 05:20:38;;;;;;;22.88;3.58;;;;;;;;;;5147604;27;20047;-62
2022/01/17 05:23:04;;;;;;;16.35;3.58;;;;;;;;;;5147320;27;20047;-61
2022/01/17 05:25:30;;;;;;;27.65;4.85;;;;;;;;;;5147661;27;20039;-61
2022/01/17 05:27:56;;;;;;;27.02;3.80;;;;;;;;;;5147976;27;20406;-61
2022/01/17 05:30:23;;;;;;;19.85;3.88;;;;;;;;;;5147928;27;20050;-61
2022/01/17 05:32:50;;;;;;;23.23;3.50;;;;;;;;;;5148408;27;20115;-61
2022/01/17 05:35:17;;;;;;;26.87;4.57;;;;;;;;;;5146057;27;20067;-61
2022/01/17 05:37:43;;;;;;;16.63;2.88;;;;;;;;;;5148162;27;20138;-61
2022/01/17 05:40:11;;;;;;;24.08;4.35;;;;;;;;;;5145609;27;20047;-61
2022/01/17 05:42:38;;;;;;;24.40;4.40;;;;;;;;;;5144240;27;20061;-61
2022/01/17 05:45:05;;;;;;;33.50;4.68;;;;;;;;;;5146453;27;20035;-63
2022/01/17 05:47:31;;;;;;;30.90;4.90;;;;;;;;;;5149861;27;20071;-61
2022/01/17 05:49:59;;;;;;;18.88;4.57;;;;;;;;;;5147510;27;20047;-61
2022/01/17 05:52:25;;;;;;;23.75;3.63;;;;;;;;;;5146404;27;20088;-63
2022/01/17 05:54:52;;;;;;;25.35;3.50;;;;;;;;;;5143296;27;20059;-62
2022/01/17 05:57:18;;;;;;;16.40;4.53;;;;;;;;;;5144930;27;20050;-61
2022/01/17 05:59:44;;;;;;;20.52;4.30;;;;;;;;;;5146105;27;20134;-61
2022/01/17 06:02:10;;;;;;;19.05;3.78;;;;;;;;;;5158646;27;20047;-61
2022/01/17 06:04:37;;;;;;;23.92;4.40;;;;;;;;;;5147409;27;20043;-63
2022/01/17 06:07:04;;;;;;;25.42;3.70;;;;;;;;;;5147509;27;20636;-62
2022/01/17 06:09:30;;;;;;;27.00;4.78;;;;;;;;;;5145935;27;20050;-63
2022/01/17 06:11:57;;;;;;;22.17;4.55;;;;;;;;;;5147237;27;20046;-63
2022/01/17 06:14:23;;;;;;;33.90;5.10;;;;;;;;;;5147468;27;20070;-61
2022/01/17 06:16:50;;;;;;;28.45;4.55;;;;;;;;;;5147113;27;20054;-61
2022/01/17 06:19:16;;;;;;;26.42;4.88;;;;;;;;;;5147170;27;20062;-61
2022/01/17 06:21:43;;;;;;;13.40;3.53;;;;;;;;;;5146481;27;20107;-61
2022/01/17 06:24:10;;;;;;;24.80;4.82;;;;;;;;;;5146995;27;20092;-61
2022/01/17 06:26:41;;;;;;;28.63;4.97;;;;;;;;;;5145105;27;20050;-61
2022/01/17 06:29:07;;;;;;;20.20;3.60;;;;;;;;;;5147142;27;20039;-61
2022/01/17 06:31:34;;;;;;;35.47;4.53;;;;;;;;;;5147073;27;20532;-61
2022/01/17 06:34:00;;;;;;;23.27;3.75;;;;;;;;;;5146877;27;20039;-61
2022/01/17 06:36:26;;;;;;;34.22;5.35;;;;;;;;;;5146152;27;20091;-61
2022/01/17 06:38:52;;;;;;;30.15;3.60;;;;;;;;;;5146562;27;20624;-61
2022/01/17 06:41:18;;;;;;;29.90;5.07;;;;;;;;;;5146213;27;20049;-61
2022/01/17 06:43:45;;;;;;;29.15;4.85;;;;;;;;;;5145780;27;20107;-63
2022/01/17 06:46:11;;;;;;;30.42;5.28;;;;;;;;;;5146459;27;20065;-60
2022/01/17 06:48:38;;;;;;;33.53;5.53;;;;;;;;;;5162345;27;20051;-63
2022/01/17 06:51:04;;;;;;;30.67;4.85;;;;;;;;;;5145882;27;20051;-61
2022/01/17 06:53:31;;;;;;;31.98;4.45;;;;;;;;;;5146236;27;20100;-61
2022/01/17 06:55:57;;;;;;;32.17;4.87;;;;;;;;;;5146493;27;20114;-61
2022/01/17 06:58:24;;;;;;;27.13;4.57;;;;;;;;;;5146597;27;20107;-61
2022/01/17 07:00:50;;;;;;;24.10;5.10;;;;;;;;;;5146013;27;20051;-61
2022/01/17 07:03:16;;;;;;;28.50;5.50;;;;;;;;;;5146247;27;20050;-61
2022/01/17 07:05:42;;;;;;;35.92;4.70;;;;;;;;;;5144461;27;20043;-61
2022/01/17 07:08:08;;;;;;;28.40;4.95;;;;;;;;;;5145984;27;20054;-61
2022/01/17 07:10:34;;;;;;;32.28;4.70;;;;;;;;;;5145850;27;20047;-61
2022/01/17 07:13:01;;;;;;;30.08;4.57;;;;;;;;;;5146661;27;20054;-61
2022/01/17 07:15:27;;;;;;;39.22;5.18;;;;;;;;;;5146207;27;20478;-61
2022/01/17 07:17:53;;;;;;;27.67;5.00;;;;;;;;;;5145851;27;20275;-61
2022/01/17 07:20:19;;;;;;;25.80;5.38;;;;;;;;;;5145468;27;20546;-61
2022/01/17 07:22:45;;;;;;;32.80;5.85;;;;;;;;;;5146324;27;20505;-61
2022/01/17 07:25:11;;;;;;;29.33;4.38;;;;;;;;;;5145895;27;20118;-61
2022/01/17 07:27:40;;;;;;;34.45;5.10;;;;;;;;;;5145484;27;20057;-61
2022/01/17 07:30:07;;;;;;;29.25;5.45;;;;;;;;;;5145963;27;20059;-61
2022/01/17 07:32:33;;;;;;;35.65;6.13;;;;;;;;;;5145935;27;20071;-61
2022/01/17 07:34:59;;;;;;;43.50;5.10;;;;;;;;;;5145914;27;20431;-61
2022/01/17 07:37:25;;;;;;;34.83;5.60;;;;;;;;;;5144892;27;20156;-61
2022/01/17 07:39:52;;;;;;;31.58;5.07;;;;;;;;;;5145514;27;20419;-61
2022/01/17 07:42:18;;;;;;;46.28;6.18;;;;;;;;;;5145548;27;20050;-61
2022/01/17 07:44:52;;;;;;;24.90;4.63;;;;;;;;;;5145825;27;20045;-62
2022/01/17 07:47:25;;;;;;;34.00;5.07;;;;;;;;;;5145388;27;20055;-62
2022/01/17 07:49:51;;;;;;;29.08;4.30;;;;;;;;;;5145487;27;20083;-62
2022/01/17 07:52:17;;;;;;;34.45;5.50;;;;;;;;;;5145011;27;20043;-62
2022/01/17 07:54:47;;;;;;;32.13;5.22;;;;;;;;;;5145732;27;20126;-62
2022/01/17 07:57:14;;;;;;;27.80;5.07;;;;;;;;;;5145491;27;20119;-62
2022/01/17 07:59:40;;;;;;;31.95;5.57;;;;;;;;;;5145344;27;20126;-62
2022/01/17 08:02:06;;;;;;;32.05;5.47;;;;;;;;;;5143977;27;20072;-63
2022/01/17 08:04:32;;;;;;;34.50;4.53;;;;;;;;;;5147692;27;20039;-62
2022/01/17 08:06:59;;;;;;;30.35;5.13;;;;;;;;;;5147274;27;20478;-62
2022/01/17 08:09:29;;;;;;;34.75;5.97;;;;;;;;;;5149160;27;20102;-62
2022/01/17 08:11:55;;;;;;;41.10;5.85;;;;;;;;;;5146832;27;20099;-62
2022/01/17 08:14:23;;;;;;;33.88;4.95;;;;;;;;;;5149117;27;20031;-62
2022/01/17 08:16:49;;;;;;;38.58;6.55;;;;;;;;;;5126914;28;20047;-62
2022/01/17 08:19:15;;;;;;;38.15;6.55;;;;;;;;;;5144456;27;20047;-62
2022/01/17 08:21:41;;;;;;;33.08;5.07;;;;;;;;;;5144366;28;20043;-63
2022/01/17 08:24:08;;;;;;;27.88;5.15;;;;;;;;;;5145184;28;20047;-62
2022/01/17 08:26:34;;;;;;;27.13;4.28;;;;;;;;;;5144641;27;20080;-61
2022/01/17 08:29:01;;;;;;;39.00;6.07;;;;;;;;;;5144505;28;20064;-63
2022/01/17 08:31:27;;;;;;;39.03;5.78;;;;;;;;;;5144616;27;20054;-63
2022/01/17 08:33:53;;;;;;;36.05;5.05;;;;;;;;;;5144240;27;20043;-63
2022/01/17 08:36:20;;;;;;;50.88;6.50;;;;;;;;;;5144161;27;20085;-61
2022/01/17 08:38:47;;;;;;;34.47;6.63;;;;;;;;;;5144259;28;20470;-61
2022/01/17 08:41:13;;;;;;;39.58;6.30;;;;;;;;;;5145051;28;20309;-62
2022/01/17 08:43:39;;;;;;;35.85;5.18;;;;;;;;;;5144941;28;20431;-62
2022/01/17 08:46:06;;;;;;;35.17;6.20;;;;;;;;;;5144436;28;20116;-62
2022/01/17 08:48:33;;;;;;;37.25;6.53;;;;;;;;;;5144981;27;20122;-61
2022/01/17 08:50:59;;;;;;;44.30;6.72;;;;;;;;;;5143250;28;20043;-63
2022/01/17 08:53:26;;;;;;;43.33;6.68;;;;;;;;;;5145787;27;20096;-62
2022/01/17 08:55:53;;;;;;;44.50;7.10;;;;;;;;;;5143974;28;20039;-63
2022/01/17 08:58:19;;;;;;;39.65;6.75;;;;;;;;;;5144875;28;20103;-62
2022/01/17 09:00:45;;;;;;;29.17;5.38;;;;;;;;;;5144714;27;20047;-62
2022/01/17 09:03:13;;;;;;;49.47;6.22;;;;;;;;;;5143933;28;20188;-62
2022/01/17 09:05:39;;;;;;;46.38;6.70;;;;;;;;;;5142151;28;20043;-63
2022/01/17 09:08:08;;;;;;;28.88;6.50;;;;;;;;;;5143242;27;20595;-62
2022/01/17 09:10:35;;;;;;;33.95;6.70;;;;;;;;;;5143609;27;20494;-62
2022/01/17 09:13:01;;;;;;;31.27;5.70;;;;;;;;;;5145246;27;20043;-62
2022/01/17 09:15:27;;;;;;;34.13;6.80;;;;;;;;;;5144161;28;20096;-62
2022/01/17 09:17:53;;;;;;;45.38;5.43;;;;;;;;;;5146155;27;20046;-62
2022/01/17 09:20:20;;;;;;;46.83;6.60;;;;;;;;;;5146230;27;20134;-62
2022/01/17 09:22:46;;;;;;;46.75;7.32;;;;;;;;;;5148258;27;20099;-63
2022/01/17 09:25:12;;;;;;;38.30;5.90;;;;;;;;;;5147361;27;20054;-62
2022/01/17 09:27:38;;;;;;;37.72;6.65;;;;;;;;;;5147827;27;20035;-63
2022/01/17 09:30:06;;;;;;;37.47;6.25;;;;;;;;;;5147868;27;20043;-62
2022/01/17 09:32:32;;;;;;;43.75;7.78;;;;;;;;;;5146548;27;20031;-62
2022/01/17 09:34:58;;;;;;;40.75;5.95;;;;;;;;;;5146372;27;20132;-62
2022/01/17 09:37:24;;;;;;;46.17;6.65;;;;;;;;;;5147161;27;20098;-62
2022/01/17 09:39:50;;;;;;;45.80;6.82;;;;;;;;;;5147910;27;20079;-62
2022/01/17 09:42:16;;;;;;;44.13;7.43;;;;;;;;;;5144871;27;20047;-63
2022/01/17 09:44:42;;;;;;;42.10;5.28;;;;;;;;;;5141679;27;20457;-63
2022/01/17 09:47:11;;;;;;;37.03;6.70;;;;;;;;;;5133719;27;20060;-63
2022/01/17 09:49:51;;;;;;;42.80;6.07;;;;;;;;;;5138077;27;20288;-64
2022/01/17 09:52:36;;;;;;;44.58;7.07;;;;;;;;;;5143581;27;20050;-65
2022/01/17 09:55:02;;;;;;;44.25;6.82;;;;;;;;;;5143794;27;20526;-65
2022/01/17 09:57:29;;;;;;;33.22;8.13;;;;;;;;;;5147348;27;20134;-66
2022/01/17 09:59:57;;;;;;;41.38;6.95;;;;;;;;;;5141814;27;20096;-63
2022/01/17 10:02:23;;;;;;;47.38;5.78;;;;;;;;;;5144685;27;20047;-64
2022/01/17 10:04:51;;;;;;;37.25;7.30;;;;;;;;;;5146109;27;20134;-64
2022/01/17 10:07:17;;;;;;;66.22;7.80;;;;;;;;;;5146584;27;20047;-63
2022/01/17 10:09:53;;;;;;;42.50;8.40;;;;;;;;;;5142268;27;20058;-64
2022/01/17 10:12:19;;;;;;;35.05;6.50;;;;;;;;;;5155185;27;20054;-65
2022/01/17 10:14:58;;;;;;;57.97;9.13;;;;;;;;;;5146509;27;20050;-63
2022/01/17 10:17:25;;;;;;;52.15;6.60;;;;;;;;;;5147362;27;20075;-62
2022/01/17 10:20:01;;;;;;;35.30;5.70;;;;;;;;;;5134242;27;20047;-60
2022/01/17 10:22:40;;;;;;;51.65;6.97;;;;;;;;;;5135019;27;20046;-66
2022/01/17 10:26:00;;;;;;;41.67;6.88;;;;;;;;;;5140657;27;20054;-66
2022/01/17 10:36:17;;;;;;;42.45;6.97;;;;;;;;;;5135116;27;20066;-64
2022/01/17 10:38:43;;;;;;;49.20;7.35;;;;;;;;;;5137974;27;20047;-64
2022/01/17 10:41:10;;;;;;;55.00;9.25;;;;;;;;;;5144083;27;20606;-66
2022/01/17 10:43:40;;;;;;;58.42;9.90;;;;;;;;;;5141828;27;20047;-65
2022/01/17 10:46:08;;;;;;;47.58;8.52;;;;;;;;;;5147279;27;20054;-68
2022/01/17 10:48:36;;;;;;;60.78;7.18;;;;;;;;;;5146134;27;20054;-65
2022/01/17 10:51:03;;;;;;;49.70;9.02;;;;;;;;;;5142998;27;20047;-66
2022/01/17 10:53:29;;;;;;;51.88;8.70;;;;;;;;;;5148666;27;20110;-65
2022/01/17 10:55:56;;;;;;;36.08;6.15;;;;;;;;;;5144368;27;20075;-66
2022/01/17 10:58:27;;;;;;;40.42;6.85;;;;;;;;;;5144219;27;20039;-68
2022/01/17 11:00:54;;;;;;;42.67;7.90;;;;;;;;;;5128351;27;20510;-66
2022/01/17 11:03:22;;;;;;;57.47;10.13;;;;;;;;;;5131840;27;20126;-64
2022/01/17 11:05:49;;;;;;;48.97;8.07;;;;;;;;;;5129055;27;20083;-65
2022/01/17 11:08:16;;;;;;;45.92;6.90;;;;;;;;;;5143764;27;20047;-64
2022/01/17 11:10:44;;;;;;;53.65;8.48;;;;;;;;;;5142322;27;20043;-65
2022/01/17 11:13:12;;;;;;;47.10;6.90;;;;;;;;;;5141191;27;20118;-64
2022/01/17 11:15:39;;;;;;;68.63;9.10;;;;;;;;;;5144462;27;20413;-65
2022/01/17 11:18:18;;;;;;;43.17;6.47;;;;;;;;;;5137597;27;20086;-64
2022/01/17 11:20:44;;;;;;;61.00;8.93;;;;;;;;;;5152517;27;20055;-64
2022/01/17 11:23:11;;;;;;;53.30;7.95;;;;;;;;;;5135438;27;20411;-63
2022/01/17 11:25:39;;;;;;;54.20;9.73;;;;;;;;;;5138339;27;20074;-64
2022/01/17 11:28:06;;;;;;;54.20;7.38;;;;;;;;;;5135197;27;20137;-65
2022/01/17 11:30:34;;;;;;;57.35;8.70;;;;;;;;;;5144607;27;20121;-63
2022/01/17 11:33:03;;;;;;;52.10;9.77;;;;;;;;;;5142901;27;20035;-64
2022/01/17 11:35:30;;;;;;;46.20;7.25;;;;;;;;;;5142275;27;20678;-67
2022/01/17 11:37:58;;;;;;;47.35;7.32;;;;;;;;;;5140096;27;20130;-67
2022/01/17 11:40:35;;;;;;;48.97;8.82;;;;;;;;;;5138402;27;20039;-67
2022/01/17 11:43:04;;;;;;;63.67;10.95;;;;;;;;;;5141514;27;20106;-66
2022/01/17 11:45:30;;;;;;;46.55;7.72;;;;;;;;;;5137709;27;20045;-65
2022/01/17 11:47:57;;;;;;;61.63;10.40;;;;;;;;;;5135736;27;20129;-65
2022/01/17 11:50:33;;;;;;;49.53;9.45;;;;;;;;;;5145008;27;20087;-64
2022/01/17 11:53:11;;;;;;;57.63;8.68;;;;;;;;;;5144200;27;20071;-65
2022/01/17 11:55:42;;;;;;;48.38;8.68;;;;;;;;;;5134152;27;20043;-68
2022/01/17 11:58:26;;;;;;;56.70;8.18;;;;;;;;;;5143418;27;20047;-61
2022/01/17 12:01:01;;;;;;;45.88;8.40;;;;;;;;;;5144368;27;20073;-61
2022/01/17 12:03:29;;;;;;;55.67;10.02;;;;;;;;;;5141051;27;20103;-61
2022/01/17 12:05:56;;;;;;;47.58;7.68;;;;;;;;;;5145697;28;20070;-61
2022/01/17 12:08:24;;;;;;;47.55;7.95;;;;;;;;;;5145748;28;20071;-61
2022/01/17 12:10:52;;;;;;;58.13;10.00;;;;;;;;;;5143988;28;20104;-61
2022/01/17 12:13:20;;;;;;;56.75;8.52;;;;;;;;;;5126448;28;20071;-61
2022/01/17 12:16:06;;;;;;;46.17;7.38;;;;;;;;;;5145692;27;20051;-61
2022/01/17 12:18:37;;;;;;;46.95;8.50;;;;;;;;;;5145407;27;20039;-61
2022/01/17 12:21:18;;;;;;;45.05;8.15;;;;;;;;;;5145142;27;20047;-60
2022/01/17 12:23:44;;;;;;;47.05;7.63;;;;;;;;;;5145727;27;20043;-62
2022/01/17 12:26:26;;;;;;;55.65;10.85;;;;;;;;;;5145663;27;20051;-61
2022/01/17 12:28:54;;;;;;;44.33;8.07;;;;;;;;;;5144031;28;20039;-60
2022/01/17 12:31:39;;;;;;;44.75;8.23;;;;;;;;;;5124776;28;20043;-61
2022/01/17 12:34:25;;;;;;;58.42;8.40;;;;;;;;;;5124929;28;20063;-61
2022/01/17 12:36:52;;;;;;;43.00;8.40;;;;;;;;;;5142274;28;20410;-60
2022/01/17 12:39:18;;;;;;;46.95;7.60;;;;;;;;;;5145069;28;20043;-60
2022/01/17 12:41:45;;;;;;;38.80;7.35;;;;;;;;;;5145194;28;20111;-61
2022/01/17 12:44:25;;;;;;;54.95;8.82;;;;;;;;;;5144813;28;20554;-60
2022/01/17 12:46:53;;;;;;;40.05;7.65;;;;;;;;;;5143157;28;20055;-61
2022/01/17 12:49:20;;;;;;;56.05;7.13;;;;;;;;;;5145011;28;20054;-63
2022/01/17 12:51:50;;;;;;;52.25;8.85;;;;;;;;;;5143976;27;20051;-66
2022/01/17 12:54:18;;;;;;;48.22;8.75;;;;;;;;;;5148613;27;20042;-64
2022/01/17 12:56:44;;;;;;;49.10;8.70;;;;;;;;;;5146119;27;20172;-65
2022/01/17 12:59:10;;;;;;;50.78;10.00;;;;;;;;;;5142757;27;20054;-67
2022/01/17 13:01:41;;;;;;;62.28;10.82;;;;;;;;;;5152285;27;20038;-65
2022/01/17 13:04:09;;;;;;;51.03;6.63;;;;;;;;;;5146402;27;20046;-65
2022/01/17 13:06:35;;;;;;;;;;;;;;;;;;5142926;27;20041;-65
2022/01/17 13:09:08;;;;;;;46.30;8.88;;;;;;;;;;5141323;27;19970;-64
2022/01/17 13:11:38;;;;;;;43.65;7.43;;;;;;;;;;5147164;27;20039;-64
2022/01/17 13:14:04;;;;;;;44.97;7.70;;;;;;;;;;5145350;27;20043;-65
2022/01/17 13:16:38;;;;;;;58.92;10.05;;;;;;;;;;5144271;27;20035;-64
2022/01/17 13:19:06;;;;;;;52.78;9.65;;;;;;;;;;5146875;27;20054;-64
2022/01/17 13:21:33;;;;;;;49.40;7.53;;;;;;;;;;5145461;27;20130;-64
2022/01/17 13:24:14;;;;;;;45.25;7.70;;;;;;;;;;5149024;27;20047;-64
2022/01/17 13:26:42;;;;;;;56.53;9.82;;;;;;;;;;5150474;27;20061;-63
2022/01/17 13:29:10;;;;;;;50.15;7.50;;;;;;;;;;5153360;27;20095;-64
2022/01/17 13:31:37;;;;;;;52.33;8.00;;;;;;;;;;5147253;27;20039;-62
2022/01/17 13:34:11;;;;;;;55.30;8.07;;;;;;;;;;5144531;27;20036;-61
2022/01/17 13:36:37;;;;;;;59.83;9.68;;;;;;;;;;5147778;27;20135;-61
2022/01/17 13:39:06;;;;;;;52.25;8.07;;;;;;;;;;5144403;27;20046;-65
2022/01/17 13:41:33;;;;;;;33.95;7.40;;;;;;;;;;5141180;27;20052;-67
2022/01/17 13:44:00;;;;;;;60.80;9.55;;;;;;;;;;5134612;27;20039;-65
2022/01/17 13:46:26;;;;;;;62.58;8.65;;;;;;;;;;5136898;27;20109;-64
2022/01/17 13:48:52;;;;;;;34.30;6.28;;;;;;;;;;5146793;27;20043;-66
2022/01/17 13:51:23;;;;;;;36.72;6.82;;;;;;;;;;5146779;27;20058;-64
2022/01/17 13:53:49;;;;;;;51.40;7.93;;;;;;;;;;5147427;27;20062;-68
2022/01/17 13:56:18;;;;;;;51.15;10.48;;;;;;;;;;5147006;27;20054;-65
2022/01/17 13:58:46;;;;;;;54.85;8.82;;;;;;;;;;5147631;27;20133;-69
2022/01/17 14:01:15;;;;;;;50.28;8.02;;;;;;;;;;5145710;27;20074;-67
2022/01/17 14:03:43;;;;;;;59.10;8.38;;;;;;;;;;5141092;27;20046;-66
2022/01/17 14:06:15;;;;;;;56.80;8.50;;;;;;;;;;5133760;27;20039;-67
2022/01/17 14:08:53;;;;;;;43.63;8.43;;;;;;;;;;5134341;27;20081;-67
2022/01/17 14:11:23;;;;;;;47.10;8.48;;;;;;;;;;5146919;27;20039;-66
2022/01/17 14:13:54;;;;;;;62.35;11.45;;;;;;;;;;5146929;27;20118;-68
2022/01/17 14:16:28;;;;;;;55.80;9.85;;;;;;;;;;5145119;27;20077;-68
2022/01/17 14:18:59;;;;;;;63.95;11.18;;;;;;;;;;5146314;27;20502;-68
2022/01/17 14:21:25;;;;;;;58.58;10.27;;;;;;;;;;5142122;27;20051;-66
2022/01/17 14:24:05;;;;;;;52.25;8.98;;;;;;;;;;5135496;27;20051;-65
2022/01/17 14:26:31;;;;;;;68.65;9.77;;;;;;;;;;5145790;27;20522;-66
2022/01/17 14:28:57;;;;;;;58.83;9.30;;;;;;;;;;5144769;27;20121;-65
2022/01/17 14:31:23;;;;;;;62.08;9.93;;;;;;;;;;5146310;27;20107;-66
2022/01/17 14:33:51;;;;;;;42.40;7.90;;;;;;;;;;5145402;27;20103;-61
2022/01/17 14:36:21;;;;;;;48.83;9.18;;;;;;;;;;5144073;27;20042;-61
2022/01/17 14:38:49;;;;;;;39.58;6.70;;;;;;;;;;5145083;27;20106;-64
2022/01/17 14:41:36;;;;;;;35.50;7.50;;;;;;;;;;5132560;27;20035;-64
2022/01/17 14:44:04;;;;;;;32.42;7.47;;;;;;;;;;5145885;27;20418;-65
2022/01/17 14:46:30;;;;;;;38.20;6.88;;;;;;;;;;5139577;27;20070;-63
2022/01/17 14:48:56;;;;;;;44.58;6.63;;;;;;;;;;5141177;27;20054;-63
2022/01/17 14:51:26;;;;;;;48.55;8.05;;;;;;;;;;5122756;27;20039;-65
2022/01/17 14:53:57;;;;;;;49.95;8.18;;;;;;;;;;5146006;27;20410;-63
2022/01/17 15:04:33;;;;;;;38.92;6.93;;;;;;;;;;5143234;27;20069;-65
2022/01/17 15:07:00;;;;;;;34.13;6.30;;;;;;;;;;5155554;27;20042;-64
2022/01/17 15:09:26;;;;;;;40.67;6.25;;;;;;;;;;5144565;27;20047;-64
2022/01/17 15:11:52;;;;;;;39.08;6.03;;;;;;;;;;5150048;27;20046;-60